KBMI

Central Illinois Regional at Bloomington-Normal Airport

Bloomington/Normal, Illinois, USA
METAR KBMI 171556Z 27009KT 4SM BR OVC007 23/21 A2998 RMK AO2 SLP165 T02280211
Observed Flight Rules
Aug-17 @ 15:56 UTC (56 minutes ago) Instrument Flight Rules
Wind Visibility Clouds Conditions
270° at 9 knots 4 miles
  • Overcast at 700' AGL
  • Mist
Temperatures Readings
Current 23°C / 73°F
Dewpoint 21°C / 70°F
Humidity 89%
Altimeter 29.98" Hg
Pressure 1016.5 hPa
Elevation 267
METAR KBMI 171556Z 27009KT 4SM BR OVC007 23/21 A2998 RMK AO2 SLP165 T02280211
Observed Flight Rules
Aug-17 @ 15:56 UTC
(56 minutes ago)
IFR
Wind Visibility
270° at 9 knots 4 miles
Clouds
  • Overcast at 700' AGL
Conditions
  • Mist
Temperature Dewpoint
23°C / 73°F 21°C / 70°F
Humidity Altimeter Pressure
89% 29.98" Hg 1016.5 hPa